sensor_id;sensor_type;location;lat;lon;timestamp;pressure;altitude;pressure_sealevel;temperature;humidity
70916;BME280;58557;50.982;-3.222;2023-12-04T00:00:42;98830.15;;;9.20;84.21
70916;BME280;58557;50.982;-3.222;2023-12-04T00:03:08;98818.64;;;9.23;83.38
70916;BME280;58557;50.982;-3.222;2023-12-04T00:05:34;98806.66;;;8.20;87.87
70916;BME280;58557;50.982;-3.222;2023-12-04T00:08:00;98798.81;;;8.65;87.36
70916;BME280;58557;50.982;-3.222;2023-12-04T00:10:26;98785.48;;;9.32;86.14
70916;BME280;58557;50.982;-3.222;2023-12-04T00:12:52;98781.67;;;9.40;84.72
70916;BME280;58557;50.982;-3.222;2023-12-04T00:15:19;98780.26;;;8.43;86.95
70916;BME280;58557;50.982;-3.222;2023-12-04T00:17:43;98772.21;;;8.33;90.18
70916;BME280;58557;50.982;-3.222;2023-12-04T00:20:09;98767.63;;;8.12;89.67
70916;BME280;58557;50.982;-3.222;2023-12-04T00:22:35;98744.92;;;8.42;91.35
70916;BME280;58557;50.982;-3.222;2023-12-04T00:25:01;98740.35;;;8.09;90.40
70916;BME280;58557;50.982;-3.222;2023-12-04T00:27:27;98714.98;;;7.91;92.16
70916;BME280;58557;50.982;-3.222;2023-12-04T00:29:53;98700.02;;;7.89;92.56
70916;BME280;58557;50.982;-3.222;2023-12-04T00:32:18;98686.13;;;7.78;92.37
70916;BME280;58557;50.982;-3.222;2023-12-04T00:34:44;98671.46;;;7.74;91.91
70916;BME280;58557;50.982;-3.222;2023-12-04T00:37:09;98661.20;;;7.84;92.05
70916;BME280;58557;50.982;-3.222;2023-12-04T00:39:35;98644.27;;;7.26;92.76
70916;BME280;58557;50.982;-3.222;2023-12-04T00:42:01;98638.55;;;7.80;89.28
70916;BME280;58557;50.982;-3.222;2023-12-04T00:44:27;98620.83;;;8.39;90.05
70916;BME280;58557;50.982;-3.222;2023-12-04T00:46:53;98596.81;;;7.88;90.19
70916;BME280;58557;50.982;-3.222;2023-12-04T00:49:19;98580.13;;;7.99;91.20
70916;BME280;58557;50.982;-3.222;2023-12-04T00:51:44;98554.70;;;7.73;92.91
70916;BME280;58557;50.982;-3.222;2023-12-04T00:54:10;98552.04;;;7.63;93.62
70916;BME280;58557;50.982;-3.222;2023-12-04T00:56:38;98524.96;;;7.06;97.39
70916;BME280;58557;50.982;-3.222;2023-12-04T00:59:01;98521.11;;;6.57;100.00
70916;BME280;58557;50.982;-3.222;2023-12-04T01:01:27;98533.88;;;7.34;100.00
70916;BME280;58557;50.982;-3.222;2023-12-04T01:03:53;98533.48;;;7.45;98.88
70916;BME280;58557;50.982;-3.222;2023-12-04T01:06:20;98538.64;;;7.47;99.90
70916;BME280;58557;50.982;-3.222;2023-12-04T01:08:45;98529.95;;;6.95;100.00
70916;BME280;58557;50.982;-3.222;2023-12-04T01:11:11;98544.14;;;7.18;100.00
70916;BME280;58557;50.982;-3.222;2023-12-04T01:13:36;98556.39;;;6.79;100.00
70916;BME280;58557;50.982;-3.222;2023-12-04T01:16:02;98561.12;;;7.38;99.24
70916;BME280;58557;50.982;-3.222;2023-12-04T01:18:28;98580.61;;;7.07;99.87
70916;BME280;58557;50.982;-3.222;2023-12-04T01:20:54;98585.28;;;7.10;99.00
70916;BME280;58557;50.982;-3.222;2023-12-04T01:23:20;98609.30;;;6.76;99.56
70916;BME280;58557;50.982;-3.222;2023-12-04T01:25:46;98614.61;;;6.95;99.57
70916;BME280;58557;50.982;-3.222;2023-12-04T01:28:11;98631.19;;;7.55;97.11
70916;BME280;58557;50.982;-3.222;2023-12-04T01:30:37;98628.15;;;7.78;96.30
70916;BME280;58557;50.982;-3.222;2023-12-04T01:33:03;98644.73;;;7.46;94.84
70916;BME280;58557;50.982;-3.222;2023-12-04T01:35:29;98651.74;;;7.71;93.76
70916;BME280;58557;50.982;-3.222;2023-12-04T01:37:54;98651.53;;;8.05;92.71
70916;BME280;58557;50.982;-3.222;2023-12-04T01:40:20;98663.68;;;8.50;90.22
70916;BME280;58557;50.982;-3.222;2023-12-04T01:42:45;98660.90;;;8.71;88.20
70916;BME280;58557;50.982;-3.222;2023-12-04T01:45:11;98672.99;;;8.33;88.59
70916;BME280;58557;50.982;-3.222;2023-12-04T01:47:37;98670.45;;;8.60;88.85
70916;BME280;58557;50.982;-3.222;2023-12-04T01:50:02;98670.54;;;8.56;87.26
70916;BME280;58557;50.982;-3.222;2023-12-04T01:52:27;98669.25;;;9.23;84.08
70916;BME280;58557;50.982;-3.222;2023-12-04T01:54:54;98675.70;;;9.18;83.60
70916;BME280;58557;50.982;-3.222;2023-12-04T01:57:19;98682.09;;;8.94;83.67
70916;BME280;58557;50.982;-3.222;2023-12-04T01:59:45;98679.57;;;9.31;80.95
70916;BME280;58557;50.982;-3.222;2023-12-04T02:02:11;98684.33;;;9.70;80.60
70916;BME280;58557;50.982;-3.222;2023-12-04T02:04:37;98685.11;;;9.01;80.23
70916;BME280;58557;50.982;-3.222;2023-12-04T02:07:02;98681.59;;;9.31;78.57
70916;BME280;58557;50.982;-3.222;2023-12-04T02:09:28;98687.20;;;9.60;77.46
70916;BME280;58557;50.982;-3.222;2023-12-04T02:11:54;98690.63;;;9.28;78.90
70916;BME280;58557;50.982;-3.222;2023-12-04T02:14:20;98688.35;;;9.77;77.72
70916;BME280;58557;50.982;-3.222;2023-12-04T02:16:46;98694.65;;;9.97;76.99
70916;BME280;58557;50.982;-3.222;2023-12-04T02:19:12;98692.15;;;9.82;77.51
70916;BME280;58557;50.982;-3.222;2023-12-04T02:21:36;98697.06;;;10.89;74.20
70916;BME280;58557;50.982;-3.222;2023-12-04T02:24:02;98693.73;;;10.41;72.29
70916;BME280;58557;50.982;-3.222;2023-12-04T02:26:30;98691.89;;;10.74;71.26
70916;BME280;58557;50.982;-3.222;2023-12-04T02:28:58;98688.06;;;10.71;70.94
70916;BME280;58557;50.982;-3.222;2023-12-04T02:31:19;98694.24;;;11.33;70.31
70916;BME280;58557;50.982;-3.222;2023-12-04T02:33:45;98693.62;;;11.53;68.02
70916;BME280;58557;50.982;-3.222;2023-12-04T02:36:10;98689.91;;;11.34;66.96
70916;BME280;58557;50.982;-3.222;2023-12-04T02:38:35;98689.71;;;11.38;68.47
70916;BME280;58557;50.982;-3.222;2023-12-04T02:41:00;98692.76;;;11.10;67.89
70916;BME280;58557;50.982;-3.222;2023-12-04T02:43:25;98693.57;;;11.92;66.01
70916;BME280;58557;50.982;-3.222;2023-12-04T02:45:51;98690.82;;;10.92;66.54
70916;BME280;58557;50.982;-3.222;2023-12-04T02:48:17;98693.52;;;12.06;66.03
70916;BME280;58557;50.982;-3.222;2023-12-04T02:50:43;98693.88;;;12.67;62.45
70916;BME280;58557;50.982;-3.222;2023-12-04T02:53:08;98689.37;;;12.24;62.10
70916;BME280;58557;50.982;-3.222;2023-12-04T02:55:34;98689.22;;;12.28;62.88
70916;BME280;58557;50.982;-3.222;2023-12-04T02:58:00;98688.36;;;12.94;62.03
70916;BME280;58557;50.982;-3.222;2023-12-04T03:00:25;98688.15;;;12.38;61.72
70916;BME280;58557;50.982;-3.222;2023-12-04T03:02:51;98689.50;;;12.37;62.80
70916;BME280;58557;50.982;-3.222;2023-12-04T03:05:16;98686.28;;;13.13;60.47
70916;BME280;58557;50.982;-3.222;2023-12-04T03:07:41;98683.14;;;13.70;59.58
70916;BME280;58557;50.982;-3.222;2023-12-04T03:10:08;98676.04;;;13.68;59.52
70916;BME280;58557;50.982;-3.222;2023-12-04T03:12:33;98671.03;;;13.72;57.66
70916;BME280;58557;50.982;-3.222;2023-12-04T03:14:59;98671.29;;;13.86;57.77
70916;BME280;58557;50.982;-3.222;2023-12-04T03:17:25;98674.22;;;13.74;58.11
70916;BME280;58557;50.982;-3.222;2023-12-04T03:19:50;98673.92;;;14.07;57.35
70916;BME280;58557;50.982;-3.222;2023-12-04T03:22:17;98670.74;;;14.37;55.33
70916;BME280;58557;50.982;-3.222;2023-12-04T03:24:42;98662.17;;;15.05;53.29
70916;BME280;58557;50.982;-3.222;2023-12-04T03:27:07;98654.50;;;14.08;57.09
70916;BME280;58557;50.982;-3.222;2023-12-04T03:29:33;98654.45;;;14.85;55.64
70916;BME280;58557;50.982;-3.222;2023-12-04T03:31:59;98651.89;;;14.04;56.20
70916;BME280;58557;50.982;-3.222;2023-12-04T03:34:25;98650.48;;;13.81;57.04
70916;BME280;58557;50.982;-3.222;2023-12-04T03:36:51;98649.46;;;14.35;55.83
70916;BME280;58557;50.982;-3.222;2023-12-04T03:39:16;98651.72;;;12.95;58.51
70916;BME280;58557;50.982;-3.222;2023-12-04T03:41:42;98651.96;;;11.77;62.74
70916;BME280;58557;50.982;-3.222;2023-12-04T03:44:08;98653.98;;;12.21;59.94
70916;BME280;58557;50.982;-3.222;2023-12-04T03:46:33;98657.97;;;12.22;60.84
70916;BME280;58557;50.982;-3.222;2023-12-04T03:48:59;98655.51;;;12.66;59.65
70916;BME280;58557;50.982;-3.222;2023-12-04T03:51:24;98654.60;;;13.07;58.70
70916;BME280;58557;50.982;-3.222;2023-12-04T03:53:50;98650.15;;;13.62;56.64
70916;BME280;58557;50.982;-3.222;2023-12-04T03:56:15;98650.21;;;13.33;57.61
70916;BME280;58557;50.982;-3.222;2023-12-04T03:58:41;98649.60;;;12.90;59.08
70916;BME280;58557;50.982;-3.222;2023-12-04T04:01:07;98649.45;;;11.84;62.77
70916;BME280;58557;50.982;-3.222;2023-12-04T04:03:32;98650.22;;;12.63;62.35
70916;BME280;58557;50.982;-3.222;2023-12-04T04:05:57;98650.42;;;12.40;61.26
70916;BME280;58557;50.982;-3.222;2023-12-04T04:08:23;98646.38;;;12.12;60.60
70916;BME280;58557;50.982;-3.222;2023-12-04T04:10:48;98641.73;;;12.29;61.63
70916;BME280;58557;50.982;-3.222;2023-12-04T04:13:14;98634.27;;;13.49;59.06
70916;BME280;58557;50.982;-3.222;2023-12-04T04:15:39;98630.21;;;13.51;56.26
70916;BME280;58557;50.982;-3.222;2023-12-04T04:18:05;98626.75;;;14.33;55.03
70916;BME280;58557;50.982;-3.222;2023-12-04T04:20:31;98628.60;;;14.21;55.55
70916;BME280;58557;50.982;-3.222;2023-12-04T04:22:56;98628.32;;;13.64;54.95
70916;BME280;58557;50.982;-3.222;2023-12-04T04:25:22;98628.33;;;12.73;57.06
70916;BME280;58557;50.982;-3.222;2023-12-04T04:27:48;98630.09;;;12.88;56.52
70916;BME280;58557;50.982;-3.222;2023-12-04T04:30:14;98632.10;;;12.71;56.09
70916;BME280;58557;50.982;-3.222;2023-12-04T04:32:40;98621.84;;;13.17;56.27
70916;BME280;58557;50.982;-3.222;2023-12-04T04:35:05;98617.68;;;13.19;55.31
70916;BME280;58557;50.982;-3.222;2023-12-04T04:37:30;98620.21;;;12.27;59.56
70916;BME280;58557;50.982;-3.222;2023-12-04T04:39:56;98618.64;;;12.27;58.97
70916;BME280;58557;50.982;-3.222;2023-12-04T04:42:22;98617.56;;;12.02;60.24
70916;BME280;58557;50.982;-3.222;2023-12-04T04:44:46;98612.61;;;12.07;58.23
70916;BME280;58557;50.982;-3.222;2023-12-04T04:47:12;98600.28;;;11.97;59.55
70916;BME280;58557;50.982;-3.222;2023-12-04T04:49:37;98596.66;;;12.50;59.43
70916;BME280;58557;50.982;-3.222;2023-12-04T04:52:04;98590.98;;;13.05;59.37
70916;BME280;58557;50.982;-3.222;2023-12-04T04:54:31;98591.29;;;12.47;57.24
70916;BME280;58557;50.982;-3.222;2023-12-04T04:56:54;98589.67;;;12.71;57.59
70916;BME280;58557;50.982;-3.222;2023-12-04T04:59:20;98593.12;;;12.60;57.27
70916;BME280;58557;50.982;-3.222;2023-12-04T05:01:45;98591.07;;;12.89;57.68
70916;BME280;58557;50.982;-3.222;2023-12-04T05:04:10;98589.23;;;13.17;57.93
70916;BME280;58557;50.982;-3.222;2023-12-04T05:06:36;98585.43;;;13.87;55.27
70916;BME280;58557;50.982;-3.222;2023-12-04T05:09:01;98581.04;;;13.48;56.16
70916;BME280;58557;50.982;-3.222;2023-12-04T05:11:27;98579.79;;;13.27;57.00
70916;BME280;58557;50.982;-3.222;2023-12-04T05:13:52;98577.79;;;13.23;56.68
70916;BME280;58557;50.982;-3.222;2023-12-04T05:16:18;98580.86;;;13.54;56.51
70916;BME280;58557;50.982;-3.222;2023-12-04T05:18:44;98586.21;;;12.82;57.22
70916;BME280;58557;50.982;-3.222;2023-12-04T05:21:10;98586.37;;;13.92;55.62
70916;BME280;58557;50.982;-3.222;2023-12-04T05:23:36;98584.30;;;13.19;57.16
70916;BME280;58557;50.982;-3.222;2023-12-04T05:26:01;98585.81;;;13.12;56.29
70916;BME280;58557;50.982;-3.222;2023-12-04T05:28:27;98586.51;;;13.83;56.25
70916;BME280;58557;50.982;-3.222;2023-12-04T05:30:52;98591.26;;;12.88;58.25
70916;BME280;58557;50.982;-3.222;2023-12-04T05:33:17;98586.03;;;13.34;54.40
70916;BME280;58557;50.982;-3.222;2023-12-04T05:35:43;98582.26;;;12.68;57.63
70916;BME280;58557;50.982;-3.222;2023-12-04T05:38:07;98586.20;;;13.04;57.04
70916;BME280;58557;50.982;-3.222;2023-12-04T05:40:33;98575.27;;;13.85;55.63
70916;BME280;58557;50.982;-3.222;2023-12-04T05:42:59;98571.14;;;12.76;56.53
70916;BME280;58557;50.982;-3.222;2023-12-04T05:45:25;98573.85;;;12.79;56.26
70916;BME280;58557;50.982;-3.222;2023-12-04T05:47:50;98568.65;;;12.89;56.60
70916;BME280;58557;50.982;-3.222;2023-12-04T05:50:16;98575.55;;;12.65;56.92
70916;BME280;58557;50.982;-3.222;2023-12-04T05:52:41;98572.48;;;12.71;58.55
70916;BME280;58557;50.982;-3.222;2023-12-04T05:55:08;98577.26;;;13.27;58.23
70916;BME280;58557;50.982;-3.222;2023-12-04T05:57:32;98579.56;;;13.05;57.98
70916;BME280;58557;50.982;-3.222;2023-12-04T05:59:57;98576.31;;;12.53;56.91
70916;BME280;58557;50.982;-3.222;2023-12-04T06:02:23;98576.32;;;11.38;61.39
70916;BME280;58557;50.982;-3.222;2023-12-04T06:04:49;98577.18;;;12.24;61.81
70916;BME280;58557;50.982;-3.222;2023-12-04T06:07:15;98573.42;;;13.81;55.42
70916;BME280;58557;50.982;-3.222;2023-12-04T06:09:40;98573.90;;;13.12;56.98
70916;BME280;58557;50.982;-3.222;2023-12-04T06:12:06;98572.37;;;14.35;52.80
70916;BME280;58557;50.982;-3.222;2023-12-04T06:14:31;98570.44;;;13.06;56.21
70916;BME280;58557;50.982;-3.222;2023-12-04T06:16:57;98567.75;;;14.06;54.09
70916;BME280;58557;50.982;-3.222;2023-12-04T06:19:22;98565.50;;;13.75;55.18
70916;BME280;58557;50.982;-3.222;2023-12-04T06:21:47;98569.36;;;12.37;56.28
70916;BME280;58557;50.982;-3.222;2023-12-04T06:24:14;98566.47;;;12.55;58.35
70916;BME280;58557;50.982;-3.222;2023-12-04T06:26:41;98565.99;;;13.58;54.72
70916;BME280;58557;50.982;-3.222;2023-12-04T06:29:05;98572.20;;;13.28;55.28
70916;BME280;58557;50.982;-3.222;2023-12-04T06:31:30;98574.08;;;13.14;56.02
70916;BME280;58557;50.982;-3.222;2023-12-04T06:33:55;98576.27;;;13.67;56.16
70916;BME280;58557;50.982;-3.222;2023-12-04T06:36:22;98572.96;;;13.60;55.46
70916;BME280;58557;50.982;-3.222;2023-12-04T06:38:47;98572.71;;;13.44;55.90
70916;BME280;58557;50.982;-3.222;2023-12-04T06:41:13;98570.79;;;14.06;55.02
70916;BME280;58557;50.982;-3.222;2023-12-04T06:43:38;98569.87;;;13.48;54.73
70916;BME280;58557;50.982;-3.222;2023-12-04T06:46:03;98566.54;;;13.09;56.16
70916;BME280;58557;50.982;-3.222;2023-12-04T06:48:29;98564.86;;;13.18;54.54
70916;BME280;58557;50.982;-3.222;2023-12-04T06:50:53;98564.79;;;12.64;56.23
70916;BME280;58557;50.982;-3.222;2023-12-04T06:53:19;98563.51;;;12.87;57.79
70916;BME280;58557;50.982;-3.222;2023-12-04T06:55:44;98567.23;;;12.19;58.83
70916;BME280;58557;50.982;-3.222;2023-12-04T06:58:10;98563.80;;;13.01;57.22
70916;BME280;58557;50.982;-3.222;2023-12-04T07:00:36;98563.16;;;13.48;55.50
70916;BME280;58557;50.982;-3.222;2023-12-04T07:03:01;98560.72;;;13.85;55.34
70916;BME280;58557;50.982;-3.222;2023-12-04T07:05:26;98559.68;;;12.76;55.40
70916;BME280;58557;50.982;-3.222;2023-12-04T07:07:52;98557.64;;;14.28;53.75
70916;BME280;58557;50.982;-3.222;2023-12-04T07:10:17;98553.97;;;13.37;55.51
70916;BME280;58557;50.982;-3.222;2023-12-04T07:12:43;98551.90;;;13.81;53.58
70916;BME280;58557;50.982;-3.222;2023-12-04T07:15:09;98556.76;;;13.17;56.90
70916;BME280;58557;50.982;-3.222;2023-12-04T07:17:34;98552.80;;;13.02;57.97
70916;BME280;58557;50.982;-3.222;2023-12-04T07:20:00;98548.13;;;13.59;55.36
70916;BME280;58557;50.982;-3.222;2023-12-04T07:22:26;98547.33;;;13.42;56.75
70916;BME280;58557;50.982;-3.222;2023-12-04T07:24:51;98550.51;;;11.52;61.07
70916;BME280;58557;50.982;-3.222;2023-12-04T07:27:16;98553.88;;;11.15;63.24
70916;BME280;58557;50.982;-3.222;2023-12-04T07:29:42;98556.52;;;11.53;61.73
70916;BME280;58557;50.982;-3.222;2023-12-04T07:32:07;98554.28;;;11.74;63.10
70916;BME280;58557;50.982;-3.222;2023-12-04T07:34:32;98555.37;;;11.41;63.81
70916;BME280;58557;50.982;-3.222;2023-12-04T07:36:58;98560.02;;;11.62;61.97
70916;BME280;58557;50.982;-3.222;2023-12-04T07:39:23;98559.11;;;11.79;62.17
70916;BME280;58557;50.982;-3.222;2023-12-04T07:41:49;98562.54;;;11.56;60.85
70916;BME280;58557;50.982;-3.222;2023-12-04T07:44:15;98563.66;;;11.55;63.97
70916;BME280;58557;50.982;-3.222;2023-12-04T07:46:40;98561.24;;;12.09;62.36
70916;BME280;58557;50.982;-3.222;2023-12-04T07:49:05;98560.54;;;12.44;61.40
70916;BME280;58557;50.982;-3.222;2023-12-04T07:51:31;98559.40;;;12.30;59.23
70916;BME280;58557;50.982;-3.222;2023-12-04T07:53:56;98549.40;;;13.16;56.88
70916;BME280;58557;50.982;-3.222;2023-12-04T07:56:21;98546.68;;;12.86;57.84
70916;BME280;58557;50.982;-3.222;2023-12-04T07:58:46;98545.47;;;12.31;59.13
70916;BME280;58557;50.982;-3.222;2023-12-04T08:01:12;98557.30;;;11.22;62.29
70916;BME280;58557;50.982;-3.222;2023-12-04T08:03:37;98560.97;;;12.66;60.77
70916;BME280;58557;50.982;-3.222;2023-12-04T08:06:04;98562.39;;;12.79;59.63
70916;BME280;58557;50.982;-3.222;2023-12-04T08:08:28;98564.96;;;13.06;60.15
70916;BME280;58557;50.982;-3.222;2023-12-04T08:10:53;98567.77;;;13.84;58.55
70916;BME280;58557;50.982;-3.222;2023-12-04T08:13:19;98569.72;;;13.17;56.81
70916;BME280;58557;50.982;-3.222;2023-12-04T08:15:44;98574.45;;;13.93;56.35
70916;BME280;58557;50.982;-3.222;2023-12-04T08:18:09;98576.47;;;14.04;56.06
70916;BME280;58557;50.982;-3.222;2023-12-04T08:20:35;98578.40;;;13.93;54.61
70916;BME280;58557;50.982;-3.222;2023-12-04T08:23:00;98577.13;;;13.72;55.20
70916;BME280;58557;50.982;-3.222;2023-12-04T08:25:25;98575.51;;;13.29;57.55
70916;BME280;58557;50.982;-3.222;2023-12-04T08:27:51;98573.92;;;13.65;57.03
70916;BME280;58557;50.982;-3.222;2023-12-04T08:30:16;98575.09;;;13.27;56.16
70916;BME280;58557;50.982;-3.222;2023-12-04T08:32:42;98576.65;;;13.13;57.14
70916;BME280;58557;50.982;-3.222;2023-12-04T08:35:08;98582.83;;;13.90;58.37
70916;BME280;58557;50.982;-3.222;2023-12-04T08:37:33;98580.70;;;13.30;57.57
70916;BME280;58557;50.982;-3.222;2023-12-04T08:39:58;98582.61;;;13.71;57.41
70916;BME280;58557;50.982;-3.222;2023-12-04T08:42:24;98580.40;;;13.53;57.24
70916;BME280;58557;50.982;-3.222;2023-12-04T08:44:49;98582.58;;;15.09;52.41
70916;BME280;58557;50.982;-3.222;2023-12-04T08:47:15;98580.04;;;15.32;52.99
70916;BME280;58557;50.982;-3.222;2023-12-04T08:49:40;98583.71;;;13.61;54.95
70916;BME280;58557;50.982;-3.222;2023-12-04T08:52:06;98582.26;;;13.66;54.64
70916;BME280;58557;50.982;-3.222;2023-12-04T08:54:31;98584.75;;;13.65;55.65
70916;BME280;58557;50.982;-3.222;2023-12-04T08:56:57;98584.90;;;13.35;56.81
70916;BME280;58557;50.982;-3.222;2023-12-04T08:59:22;98586.11;;;13.71;57.03
70916;BME280;58557;50.982;-3.222;2023-12-04T09:01:47;98588.83;;;13.84;55.02
70916;BME280;58557;50.982;-3.222;2023-12-04T09:04:13;98593.52;;;14.01;56.81
70916;BME280;58557;50.982;-3.222;2023-12-04T09:06:38;98592.36;;;13.91;56.08
70916;BME280;58557;50.982;-3.222;2023-12-04T09:09:04;98590.57;;;13.27;58.37
70916;BME280;58557;50.982;-3.222;2023-12-04T09:11:30;98592.88;;;13.69;58.22
70916;BME280;58557;50.982;-3.222;2023-12-04T09:13:55;98591.37;;;15.16;52.29
70916;BME280;58557;50.982;-3.222;2023-12-04T09:16:21;98594.24;;;14.54;52.75
70916;BME280;58557;50.982;-3.222;2023-12-04T09:18:47;98602.35;;;14.17;54.95
70916;BME280;58557;50.982;-3.222;2023-12-04T09:21:12;98601.80;;;13.39;56.49
70916;BME280;58557;50.982;-3.222;2023-12-04T09:23:37;98604.91;;;12.84;56.72
70916;BME280;58557;50.982;-3.222;2023-12-04T09:26:02;98605.17;;;13.74;57.21
70916;BME280;58557;50.982;-3.222;2023-12-04T09:28:28;98604.63;;;13.15;58.70
70916;BME280;58557;50.982;-3.222;2023-12-04T09:30:53;98604.77;;;14.75;53.11
70916;BME280;58557;50.982;-3.222;2023-12-04T09:33:19;98608.61;;;12.54;57.41
70916;BME280;58557;50.982;-3.222;2023-12-04T09:35:44;98606.29;;;12.61;57.47
70916;BME280;58557;50.982;-3.222;2023-12-04T09:38:10;98616.09;;;12.51;60.61
70916;BME280;58557;50.982;-3.222;2023-12-04T09:40:35;98617.49;;;12.01;61.53
70916;BME280;58557;50.982;-3.222;2023-12-04T09:43:01;98622.53;;;11.07;63.30
70916;BME280;58557;50.982;-3.222;2023-12-04T09:45:26;98625.24;;;10.80;64.47
70916;BME280;58557;50.982;-3.222;2023-12-04T09:47:52;98627.17;;;10.80;63.64
70916;BME280;58557;50.982;-3.222;2023-12-04T09:50:17;98630.91;;;11.61;65.50
70916;BME280;58557;50.982;-3.222;2023-12-04T09:52:42;98630.22;;;13.14;62.39
70916;BME280;58557;50.982;-3.222;2023-12-04T09:55:08;98631.27;;;13.74;60.01
70916;BME280;58557;50.982;-3.222;2023-12-04T09:57:33;98630.04;;;13.63;59.10
70916;BME280;58557;50.982;-3.222;2023-12-04T10:00:00;98631.69;;;13.43;59.01
70916;BME280;58557;50.982;-3.222;2023-12-04T10:02:24;98631.19;;;13.45;59.25
70916;BME280;58557;50.982;-3.222;2023-12-04T10:04:49;98628.57;;;13.32;58.91
70916;BME280;58557;50.982;-3.222;2023-12-04T10:07:15;98631.10;;;13.74;58.44
70916;BME280;58557;50.982;-3.222;2023-12-04T10:09:41;98633.59;;;14.12;55.95
70916;BME280;58557;50.982;-3.222;2023-12-04T10:12:07;98633.89;;;13.99;57.52
70916;BME280;58557;50.982;-3.222;2023-12-04T10:14:32;98633.75;;;13.55;57.64
70916;BME280;58557;50.982;-3.222;2023-12-04T10:16:57;98635.94;;;13.74;57.91
70916;BME280;58557;50.982;-3.222;2023-12-04T10:19:24;98636.50;;;14.04;57.74
70916;BME280;58557;50.982;-3.222;2023-12-04T10:21:48;98634.50;;;13.86;56.60
70916;BME280;58557;50.982;-3.222;2023-12-04T10:24:13;98632.42;;;14.27;54.25
70916;BME280;58557;50.982;-3.222;2023-12-04T10:26:49;98632.05;;;14.73;53.23
70916;BME280;58557;50.982;-3.222;2023-12-04T10:29:04;98639.52;;;14.61;54.05
70916;BME280;58557;50.982;-3.222;2023-12-04T10:31:32;98638.24;;;14.08;55.76
70916;BME280;58557;50.982;-3.222;2023-12-04T10:33:55;98642.48;;;13.81;54.67
70916;BME280;58557;50.982;-3.222;2023-12-04T10:36:21;98642.43;;;15.06;53.62
70916;BME280;58557;50.982;-3.222;2023-12-04T10:38:46;98644.69;;;14.81;53.28
70916;BME280;58557;50.982;-3.222;2023-12-04T10:41:12;98645.77;;;13.90;54.46
70916;BME280;58557;50.982;-3.222;2023-12-04T10:43:46;98648.69;;;14.20;56.50
70916;BME280;58557;50.982;-3.222;2023-12-04T10:46:03;98648.00;;;13.63;56.29
70916;BME280;58557;50.982;-3.222;2023-12-04T10:48:28;98647.31;;;13.88;55.52
70916;BME280;58557;50.982;-3.222;2023-12-04T10:50:54;98640.96;;;14.27;56.57
70916;BME280;58557;50.982;-3.222;2023-12-04T10:53:20;98645.95;;;13.38;56.85
70916;BME280;58557;50.982;-3.222;2023-12-04T10:55:47;98642.41;;;14.43;55.71
70916;BME280;58557;50.982;-3.222;2023-12-04T10:58:13;98646.98;;;14.42;55.13
70916;BME280;58557;50.982;-3.222;2023-12-04T11:00:40;98647.83;;;13.36;55.37
70916;BME280;58557;50.982;-3.222;2023-12-04T11:03:05;98642.94;;;13.73;56.24
70916;BME280;58557;50.982;-3.222;2023-12-04T11:05:28;98647.06;;;12.96;57.45
70916;BME280;58557;50.982;-3.222;2023-12-04T11:07:56;98649.77;;;11.95;62.07
70916;BME280;58557;50.982;-3.222;2023-12-04T11:10:21;98649.49;;;12.55;62.75
70916;BME280;58557;50.982;-3.222;2023-12-04T11:12:45;98645.65;;;12.45;61.83
70916;BME280;58557;50.982;-3.222;2023-12-04T11:15:11;98644.89;;;12.86;59.42
70916;BME280;58557;50.982;-3.222;2023-12-04T11:17:35;98644.36;;;13.24;58.54
70916;BME280;58557;50.982;-3.222;2023-12-04T11:20:07;98642.37;;;13.36;59.48
70916;BME280;58557;50.982;-3.222;2023-12-04T11:22:26;98650.17;;;12.89;60.11
70916;BME280;58557;50.982;-3.222;2023-12-04T11:24:52;98650.03;;;12.69;61.18
70916;BME280;58557;50.982;-3.222;2023-12-04T11:27:18;98651.36;;;12.89;59.74
70916;BME280;58557;50.982;-3.222;2023-12-04T11:29:44;98656.85;;;12.81;60.22
70916;BME280;58557;50.982;-3.222;2023-12-04T11:32:14;98663.48;;;12.16;61.06
70916;BME280;58557;50.982;-3.222;2023-12-04T11:34:35;98666.31;;;12.50;61.27
70916;BME280;58557;50.982;-3.222;2023-12-04T11:36:59;98666.58;;;12.12;61.19
70916;BME280;58557;50.982;-3.222;2023-12-04T11:39:26;98668.74;;;12.48;61.96
70916;BME280;58557;50.982;-3.222;2023-12-04T11:41:50;98669.28;;;12.28;60.92
70916;BME280;58557;50.982;-3.222;2023-12-04T11:44:17;98670.61;;;11.36;62.77
70916;BME280;58557;50.982;-3.222;2023-12-04T11:49:27;98673.46;;;11.41;64.78
70916;BME280;58557;50.982;-3.222;2023-12-04T11:51:46;98674.39;;;11.07;62.99
70916;BME280;58557;50.982;-3.222;2023-12-04T11:53:57;98675.28;;;11.77;62.39
70916;BME280;58557;50.982;-3.222;2023-12-04T11:56:23;98678.97;;;11.90;60.95
70916;BME280;58557;50.982;-3.222;2023-12-04T11:58:48;98675.23;;;11.42;63.03
70916;BME280;58557;50.982;-3.222;2023-12-04T12:01:17;98676.63;;;12.25;62.36
70916;BME280;58557;50.982;-3.222;2023-12-04T12:03:39;98677.30;;;12.10;64.16
70916;BME280;58557;50.982;-3.222;2023-12-04T12:06:04;98675.29;;;11.12;66.25
70916;BME280;58557;50.982;-3.222;2023-12-04T12:08:30;98678.99;;;11.97;63.32
70916;BME280;58557;50.982;-3.222;2023-12-04T12:10:55;98682.33;;;12.48;63.03
70916;BME280;58557;50.982;-3.222;2023-12-04T12:13:21;98682.85;;;11.46;64.08
70916;BME280;58557;50.982;-3.222;2023-12-04T12:15:47;98681.63;;;11.56;64.11
70916;BME280;58557;50.982;-3.222;2023-12-04T12:18:11;98682.12;;;11.43;66.06
70916;BME280;58557;50.982;-3.222;2023-12-04T12:20:37;98684.08;;;11.02;67.01
70916;BME280;58557;50.982;-3.222;2023-12-04T12:23:02;98683.19;;;10.78;69.94
70916;BME280;58557;50.982;-3.222;2023-12-04T12:25:27;98684.86;;;10.61;68.94
70916;BME280;58557;50.982;-3.222;2023-12-04T12:27:53;98687.86;;;10.46;69.90
70916;BME280;58557;50.982;-3.222;2023-12-04T12:30:18;98688.60;;;10.19;70.15
70916;BME280;58557;50.982;-3.222;2023-12-04T12:32:44;98689.24;;;10.52;70.31
70916;BME280;58557;50.982;-3.222;2023-12-04T12:35:09;98687.62;;;10.92;69.24
70916;BME280;58557;50.982;-3.222;2023-12-04T12:37:35;98688.85;;;10.70;68.03
70916;BME280;58557;50.982;-3.222;2023-12-04T12:40:00;98690.17;;;9.99;72.85
70916;BME280;58557;50.982;-3.222;2023-12-04T12:42:27;98692.59;;;9.16;73.36
70916;BME280;58557;50.982;-3.222;2023-12-04T12:44:51;98696.03;;;9.78;74.06